Tiempo atmosférico en la estación meteorológica de Campos, Can Sion, Illes Balears (40 m.)



Fecha
DESCASC
Temp. máxima en grados centígrados (hora)
DESCASC
Temp. mínima en grados centígrados (hora)
DESCASC
Temp. media en grados centígrados
DESCASC
Racha de viento máxima en m/sg (hora)
DESCASC
Velocidad máxima media en intervalos de 10 minutos(hora)
DESCASC
Precipitaciones diarias en mm
DESCASC
Precipitaciones de 00:00 a 06:00 en mm
DESCASC
Precipitaciones de 06:00 a 12:00 en mm
DESCASC
Precipitaciones de 12:00 a 18:00 en mm
DESCASC
Precipitaciones de 18:00 a 24:00 en mm
DESCASC
08-12-2019 16.7 (14:30) 3.2 (06:40) 10 6.39 (14:30) 3.89 (14:40) 0 0 0 0 0
07-12-2019 16.2 (13:10) 5.2 (03:50) 10.7 2.5 (13:10) 1.39 (06:40) 0 0 0 0 0
06-12-2019 19.5 (14:20) 6.1 (00:20) 12.8 4.17 (16:50) 2.5 (16:50) 0 0 0 0 0
05-12-2019 16.7 (14:20) 5.1 (00:00) 10.9 5.56 (14:30) 3.06 (13:30) 0.2 0.2 0 0 0
04-12-2019 16.2 (01:20) 8.3 (00:00) 12.3 15 (04:10) 8.33 (03:40) 38.8 34 4.4 0.4 0
03-12-2019 15.7 (23:10) 11.4 (00:00) 13.5 12.78 (23:59) 7.5 (23:59) 5.4 0 0 0 5.4
02-12-2019 15.8 (14:10) 10.9 (00:00) 13.3 9.44 (13:00) 4.44 (13:40) 7.6 1.2 6.4 0 0
01-12-2019 18.9 (12:50) 11.2 (00:00) 15 6.94 (12:50) 4.17 (13:00) 0 0 0 0 0
30-11-2019 18.8 (14:00) 7.5 (00:00) 13.1 6.39 (14:50) 3.61 (13:00) 0 0 0 0 0
29-11-2019 19.4 (13:00) 7.7 (00:00) 13.5 9.44 (01:50) 5 (01:50) 0 0 0 0 0
28-11-2019 19.3 (13:20) 6.5 (00:00) 12.9 9.44 (12:10) 5.28 (13:00) 0 0 0 0 0
27-11-2019 20.3 (11:20) 9.6 (00:00) 14.9 12.78 (13:10) 6.67 (12:20) 0 0 0 0 0
26-11-2019 19.1 (13:30) 6.2 (00:00) 12.7 8.06 (16:30) 4.72 (15:30) 0 0 0 0 0
25-11-2019 19.3 (14:30) 3.9 (00:00) 11.6 7.5 (13:10) 4.44 (12:40) 0 0 0 0 0
24-11-2019 16.9 (14:30) 5 (00:00) 10.9 11.67 (11:00) 6.39 (11:10) 0 0 0 0 0
23-11-2019 16.7 (03:20) 11.6 (00:00) 14.2 15 (11:20) 8.33 (11:00) 5.2 3.4 0.6 1.2 0
22-11-2019 16.6 (14:40) 9 (00:00) 12.8 12.5 (23:40) 6.67 (23:30) 33.2 13.2 10.4 0.4 9.2
21-11-2019 16.9 (13:20) 7.1 (00:00) 12 9.72 (14:50) 5.56 (14:50) 1.8 1.8 0 0 0
20-11-2019 13.4 (13:40) 2 (00:00) 7.7 4.44 (17:20) 1.94 (09:30) 0.6 0 0.2 0.2 0.2
19-11-2019 15.7 (15:30) 2.4 (00:00) 9 6.11 (12:40) 3.06 (12:50) 0.2 0 0 0.2 0
18-11-2019 15.3 (00:10) 4.4 (00:00) 9.9 11.94 (16:40) 5 (14:40) 1.6 1.6 0 0 0
17-11-2019 15.9 (13:10) 4.1 (00:00) 10 11.94 (13:40) 6.11 (14:10) 0.2 0.2 0 0 0
16-11-2019 13.4 (14:20) 3.2 (00:00) 8.3 8.06 (15:10) 3.89 (14:50) 0 0 0 0 0
15-11-2019 14.8 (14:20) 4.5 (00:00) 9.7 9.72 (07:40) 5 (07:40) 1 0.8 0.2 0 0
14-11-2019 17.8 (12:30) 4.7 (00:00) 11.2 14.72 (12:10) 7.78 (12:20) 8 0 0 7.6 0.4
13-11-2019 14.1 (13:30) 4.8 (00:00) 9.5 6.67 (15:30) 3.33 (15:30) 8.6 0 8.4 0.2 0
12-11-2019 17.5 (12:20) 4.5 (00:00) 11 8.61 (14:40) 4.72 (14:50) 0 0 0 0 0
11-11-2019 14.3 (15:30) 5.1 (00:00) 9.7 9.72 (17:00) 4.72 (13:40) 0.2 0.2 0 0 0

Gráficas

Temp. máximas Temp. mínimas Temp. medias Precipitaciones Rachas de viento máximas Velocidades máximas media en intervalos de 10 minutos

Datos horarios

Fecha y hora oficial Temperatura (ºC) Velocidad del viento (km/h) Dirección del viento Racha (km/h) Dirección de racha Precipitación (mm) Presión (hPa) Tendencia (hPa) Humedad (%)
2019-12-10 23:00:00 3.2 4 Este 6 Este 0 -- -- 96
2019-12-10 22:00:00 3.9 4 Sudeste 7 Este 0 -- -- 96
2019-12-10 21:00:00 4 3 Sur 4 Sudoeste 0 -- -- 94
2019-12-10 20:00:00 5.2 2 Sudeste 4 Sudeste 0 -- -- 93
2019-12-10 19:00:00 6.5 2 Sudoeste 5 Sudoeste 0 -- -- 88
2019-12-10 18:00:00 9.7 0 Calma 8 Sudoeste 0 -- -- 80
2019-12-10 17:00:00 13.9 4 Sudoeste 18 Oeste 0 -- -- 70
2019-12-10 16:00:00 15.5 9 Sudoeste 18 Oeste 0 -- -- 60
2019-12-10 15:00:00 16.8 6 Norte 19 Noroeste 0 -- -- 39
2019-12-10 14:00:00 17 9 Noroeste 26 Norte 0 -- -- 46
2019-12-10 13:00:00 16 9 Norte 33 Nordeste 0 -- -- 50
2019-12-10 12:00:00 15.2 11 Norte 32 Norte 0 -- -- 50
2019-12-10 11:00:00 14.6 8 Norte 17 Norte 0 -- -- 68
2019-12-10 10:00:00 11.9 6 Norte 14 Norte 0 -- -- 90
2019-12-10 09:00:00 5.6 3 Nordeste 5 Nordeste 0 -- -- 100
2019-12-10 08:00:00 4.5 4 Este 10 Este 0 -- -- 99
2019-12-10 07:00:00 3.9 4 Este 8 Norte 0 -- -- 98
2019-12-10 06:00:00 3.4 3 Nordeste 6 Este 0 -- -- 96
2019-12-10 05:00:00 4.1 3 Este 7 Este 0 -- -- 95
2019-12-10 04:00:00 3.7 2 Sudeste 5 Sur 0 -- -- 94
2019-12-10 03:00:00 4.8 0 Calma 6 Este 0 -- -- 91
2019-12-10 02:00:00 6.6 2 Sudeste 10 Este 0 -- -- 87
2019-12-10 01:00:00 9.5 4 Este 17 Oeste 0 -- -- 79
2019-12-10 00:00:00 9.9 7 Noroeste 14 Noroeste 0 -- -- 80
2019-12-09 23:00:00 10.9 4 Oeste 14 Sudoeste 0 -- -- 73
2019-12-09 22:00:00 12 6 Sudoeste 20 Sudoeste 0 -- -- 70
2019-12-09 21:00:00 13.3 13 Sudoeste 23 Oeste 0 -- -- 68
2019-12-09 20:00:00 13.2 9 Oeste 31 Noroeste 0 -- -- 68
2019-12-09 19:00:00 12.5 9 Noroeste 19 Noroeste 0 -- -- 70
2019-12-09 18:00:00 13.3 6 Nordeste 44 Noroeste 0 -- -- 64
2019-12-09 17:00:00 14.8 21 Noroeste 60 Noroeste 0 -- -- 58
2019-12-09 16:00:00 16 26 Noroeste 58 Noroeste 0 -- -- 55
2019-12-09 15:00:00 17 24 Noroeste 59 Noroeste 0 -- -- 52
2019-12-09 14:00:00 17.7 34 Noroeste 72 Noroeste 0 -- -- 47
2019-12-09 13:00:00 18 20 Oeste 47 Oeste 0 -- -- 48
2019-12-09 12:00:00 17.4 18 Oeste 42 Oeste 0 -- -- 52
2019-12-09 11:00:00 16.6 12 Oeste 33 Oeste 0 -- -- 60
2019-12-09 10:00:00 14.3 13 Oeste 23 Oeste 0 -- -- 80
2019-12-09 09:00:00 10.5 4 Oeste 9 Oeste 0 -- -- 100
2019-12-09 08:00:00 7.9 0 Calma 10 Oeste 0 -- -- 99
2019-12-09 07:00:00 8.8 2 Noroeste 11 Oeste 0 -- -- 100
2019-12-09 06:00:00 7.9 0 Calma 6 Noroeste 0 -- -- 99
2019-12-09 05:00:00 9.9 5 Sur 9 Sur 0 -- -- 100
2019-12-09 04:00:00 10.6 3 Este 6 Este 0 -- -- 100
2019-12-09 03:00:00 10.7 4 Este 6 Este 0 -- -- 100
2019-12-09 02:00:00 9.7 2 Sudeste 4 Este 0 -- -- 100
2019-12-09 01:00:00 8.8 0 Calma -- -- 0 -- -- 100
2019-12-09 00:00:00 6.7 3 Sudeste 4 Sudeste 0 -- -- 99
2019-12-08 23:00:00 6.8 2 Sudeste 4 Sudeste 0 -- -- 98
2019-12-08 22:00:00 7.6 0 Calma 3 Sur 0 -- -- 97
2019-12-08 21:00:00 7.5 0 Calma 4 Sudoeste 0 -- -- 96
2019-12-08 20:00:00 8.3 0 Calma 4 Oeste 0 -- -- 94
2019-12-08 19:00:00 10.2 2 Oeste 8 Sudoeste 0 -- -- 91
2019-12-08 18:00:00 12.5 4 Sudoeste 11 Sudoeste 0 -- -- 89
2019-12-08 17:00:00 14.7 7 Sudoeste 21 Sudoeste 0 -- -- 83
2019-12-08 16:00:00 16 11 Sudoeste 23 Sudoeste 0 -- -- 79
2019-12-08 15:00:00 16.5 12 Sudoeste 23 Sudoeste 0 -- -- 79
2019-12-08 14:00:00 16.5 13 Sudoeste 22 Sudoeste 0 -- -- 82
2019-12-08 13:00:00 16.2 10 Sudoeste 19 Sudoeste 0 -- -- 99
2019-12-08 12:00:00 15.3 6 Sudoeste 13 Sudoeste 0 -- -- 100
2019-12-08 11:00:00 13.6 3 Sudoeste 5 Sudoeste 0 -- -- 100
2019-12-08 10:00:00 10.5 0 Calma 4 Este 0 -- -- 100
2019-12-08 09:00:00 6.1 0 Calma 6 Nordeste 0 -- -- 100
2019-12-08 08:00:00 5.6 4 Este 7 Este 0 -- -- 100
2019-12-08 07:00:00 3.9 3 Este 5 Este 0 -- -- 100
2019-12-08 06:00:00 3.6 2 Nordeste 4 Este 0 -- -- 100
2019-12-08 05:00:00 3.3 2 Nordeste 3 Este 0 -- -- 100
2019-12-08 04:00:00 4.6 0 Calma 6 Nordeste 0 -- -- 99
2019-12-08 03:00:00 4.4 2 Nordeste 5 Este 0 -- -- 99
2019-12-08 02:00:00 5 3 Nordeste 7 Nordeste 0 -- -- 99
2019-12-08 01:00:00 5.4 2 Nordeste 5 Este 0 -- -- 99
2019-12-08 00:00:00 5.5 3 Este 5 Este 0 -- -- 99
2019-12-07 23:00:00 6.3 3 Este 4 Este 0 -- -- 97
2019-12-07 22:00:00 6.9 2 Este 6 Noroeste 0 -- -- 97
2019-12-07 21:00:00 7.4 3 Este 5 Nordeste 0 -- -- 96
2019-12-07 20:00:00 8.9 3 Este 4 Este 0 -- -- 96
2019-12-07 19:00:00 10 3 Este 5 Nordeste 0 -- -- 95
2019-12-07 18:00:00 11.6 0 Calma 3 Este 0 -- -- 92
2019-12-07 17:00:00 13.8 2 Sudeste 6 Sudeste 0 -- -- 90
2019-12-07 16:00:00 14.9 4 Sudeste 8 Sudeste 0 -- -- 86
2019-12-07 15:00:00 16.1 2 Este 7 Nordeste 0 -- -- 90
2019-12-07 14:00:00 15.7 3 Nordeste 9 Norte 0 -- -- 98
2019-12-07 13:00:00 16.1 3 Norte 8 Nordeste 0 -- -- 100
2019-12-07 12:00:00 13.3 3 Nordeste 7 Nordeste 0 -- -- 100
2019-12-07 11:00:00 11.6 4 Este 6 Este 0 -- -- 100
2019-12-07 10:00:00 8.6 0 Calma 5 Este 0 -- -- 100
2019-12-07 09:00:00 6.7 0 Calma 4 Norte 0 -- -- 100
2019-12-07 08:00:00 5.5 2 Nordeste 4 Norte 0 -- -- 100
2019-12-07 07:00:00 6.3 2 Nordeste 8 Este 0 -- -- 100
2019-12-07 06:00:00 6.4 3 Nordeste 6 Nordeste 0 -- -- 100
2019-12-07 05:00:00 7 3 Este 7 Este 0 -- -- 100
2019-12-07 04:00:00 5.3 3 Este 5 Este 0 -- -- 100
2019-12-07 03:00:00 5.7 3 Este 4 Norte 0 -- -- 99
2019-12-07 02:00:00 6.7 2 Este 5 Este 0 -- -- 100
2019-12-07 01:00:00 7.4 2 Este 4 Este 0 -- -- 98
2019-12-07 00:00:00 9.1 3 Nordeste 6 Este 0 -- -- 99
2019-12-06 23:00:00 9.7 3 Este 5 Este 0 -- -- 98
2019-12-06 22:00:00 9.7 4 Este 6 Este 0 -- -- 98
2019-12-06 21:00:00 7.8 2 Este 3 Este 0 -- -- 95
2019-12-06 20:00:00 8.7 0 Calma 3 Este 0 -- -- 93
2019-12-06 19:00:00 10.3 0 Calma 5 Nordeste 0 -- -- 91
2019-12-06 18:00:00 12.9 0 Calma 12 Este 0 -- -- 88
2019-12-06 17:00:00 15.7 8 Este 15 Este 0 -- -- 83
2019-12-06 16:00:00 16.7 5 Este 12 Sudeste 0 -- -- 79
2019-12-06 15:00:00 19.2 3 Nordeste 8 Norte 0 -- -- 68
2019-12-06 14:00:00 19.2 3 Nordeste 8 Norte 0 -- -- 66
2019-12-06 13:00:00 18.8 3 Norte 9 Norte 0 -- -- 72
2019-12-06 12:00:00 17.5 4 Norte 8 Norte 0 -- -- 74
2019-12-06 11:00:00 15.7 3 Norte 5 Norte 0 -- -- 100
2019-12-06 10:00:00 11.8 2 Este 4 Nordeste 0 -- -- 100
2019-12-06 09:00:00 9.1 3 Este 5 Este 0 -- -- 100
2019-12-06 08:00:00 6.8 0 Calma 3 Este 0 -- -- 100
2019-12-06 07:00:00 7.6 3 Este 4 Este 0 -- -- 100
2019-12-06 06:00:00 8.4 0 Calma 5 Este 0 -- -- 100
2019-12-06 05:00:00 9 0 Calma 5 Nordeste 0 -- -- 100
2019-12-06 04:00:00 8.8 3 Este 4 Este 0 -- -- 100
2019-12-06 03:00:00 8 3 Este 5 Este 0 -- -- 100
2019-12-06 02:00:00 6.8 4 Este 5 Este 0 -- -- 100
2019-12-06 01:00:00 6.3 3 Este 4 Este 0 -- -- 100
2019-12-06 00:00:00 6.5 0 Calma 5 Este 0 -- -- 99
2019-12-05 23:00:00 7.5 3 Este 5 Este 0 -- -- 100
2019-12-05 22:00:00 8.1 2 Este 8 Este 0 -- -- 99
2019-12-05 21:00:00 8.8 5 Este 7 Este 0 -- -- 99
2019-12-05 20:00:00 8.7 4 Este 5 Este 0 -- -- 97
2019-12-05 19:00:00 9.7 3 Este 4 Este 0 -- -- 95
2019-12-05 18:00:00 12.2 3 Sudeste 6 Sudoeste 0 -- -- 93
2019-12-05 17:00:00 15.7 4 Sudoeste 17 Sudoeste 0 -- -- 92
2019-12-05 16:00:00 16.3 7 Sudoeste 14 Sudoeste 0 -- -- 98
2019-12-05 15:00:00 16.1 8 Sudoeste 20 Sudoeste 0 -- -- 99
2019-12-05 14:00:00 15.8 6 Sudoeste 17 Sudoeste 0 -- -- 100
2019-12-05 13:00:00 16 8 Sudoeste 14 Sudoeste 0 -- -- 100
2019-12-05 12:00:00 15.5 5 Sudoeste 13 Sudoeste 0 -- -- 100
2019-12-05 11:00:00 14.9 0 Calma 4 Este 0 -- -- 100
2019-12-05 10:00:00 12.2 2 Este 6 Norte 0 -- -- 100
2019-12-05 09:00:00 8.1 3 Este 5 Nordeste 0 -- -- 100
2019-12-05 08:00:00 5.1 4 Este 5 Este 0 -- -- 100
2019-12-05 07:00:00 6.4 3 Nordeste 6 Sudeste 0 -- -- 100
2019-12-05 06:00:00 6.6 2 Norte 6 Norte 0.2 -- -- 100
2019-12-05 05:00:00 6.7 3 Sudeste 7 Este 0 -- -- 100
2019-12-05 04:00:00 6.1 3 Este 4 Este 0 -- -- 100
2019-12-05 03:00:00 6.4 2 Nordeste 4 Nordeste 0 -- -- 100
2019-12-05 02:00:00 7.7 2 Este 7 Nordeste 0 -- -- 100
2019-12-05 01:00:00 7.8 3 Este 8 Este 0 -- -- 100
2019-12-05 00:00:00 8.7 4 Este 6 Este 0 -- -- 100
2019-12-04 23:00:00 9.3 3 Nordeste 11 Nordeste 0 -- -- 100
2019-12-04 22:00:00 9 0 Calma 11 Nordeste 0 -- -- 100
2019-12-04 21:00:00 9.5 5 Nordeste 13 Nordeste 0 -- -- 100
2019-12-04 20:00:00 9.3 5 Nordeste 10 Nordeste 0 -- -- 100
2019-12-04 19:00:00 8.6 2 Norte 4 Norte 0 -- -- 100
2019-12-04 18:00:00 10.1 3 Nordeste 8 Norte 0 -- -- 100
2019-12-04 17:00:00 11.6 4 Nordeste 12 Nordeste 0 -- -- 100
2019-12-04 16:00:00 11.9 8 Nordeste 18 Nordeste 0 -- -- 100
2019-12-04 15:00:00 11.9 6 Nordeste 14 Norte 0 -- -- 100
2019-12-04 14:00:00 11.6 7 Nordeste 22 Norte 0 -- -- 100
2019-12-04 13:00:00 11.9 4 Nordeste 9 Norte 0.4 -- -- 100
2019-12-04 12:00:00 12.5 3 Noroeste 8 Norte 0.8 -- -- 100
2019-12-04 11:00:00 13.4 4 Nordeste 25 Sudeste 2 -- -- 100
2019-12-04 10:00:00 14.9 9 Este 40 Este 0.8 -- -- 100
2019-12-04 09:00:00 14.1 6 Este 14 Este 0 -- -- 100
2019-12-04 08:00:00 11.6 6 Este 17 Nordeste 0.2 -- -- 100
2019-12-04 07:00:00 13 14 Este 39 Este 0.6 -- -- 98
2019-12-04 06:00:00 15.8 21 Este 45 Sudeste 2 -- -- 100
2019-12-04 05:00:00 15.8 24 Sudeste 54 Nordeste 10.6 -- -- 100
2019-12-04 04:00:00 15.5 25 Este 51 Este 3.2 -- -- 99
2019-12-04 03:00:00 11.7 8 Este 40 Sur 14.4 -- -- 98
2019-12-04 02:00:00 13.4 17 Sur 51 Este 3.6 -- -- 92
2019-12-04 01:00:00 16 26 Este 53 Este 0.2 -- -- 97
2019-12-04 00:00:00 15.7 27 Este 46 Este 0.8 -- -- 99
2019-12-03 23:00:00 15.6 24 Este 44 Este 1.8 -- -- 98
2019-12-03 22:00:00 15.1 14 Nordeste 36 Este 2.8 -- -- 95
2019-12-03 21:00:00 15.5 10 Nordeste 22 Nordeste 0 -- -- 87
2019-12-03 20:00:00 15.1 10 Nordeste 27 Nordeste 0 -- -- 88
2019-12-03 19:00:00 14.5 11 Nordeste 27 Nordeste 0 -- -- 84
2019-12-03 18:00:00 14.2 13 Nordeste 30 Nordeste 0 -- -- 82
2019-12-03 17:00:00 14.1 10 Nordeste 27 Norte 0 -- -- 82
2019-12-03 16:00:00 14.1 13 Nordeste 36 Este 0 -- -- 80
2019-12-03 15:00:00 14.6 16 Nordeste 33 Nordeste 0 -- -- 76
2019-12-03 14:00:00 14.4 14 Nordeste 30 Nordeste 0 -- -- 74
2019-12-03 13:00:00 14.3 13 Nordeste 28 Este 0 -- -- 75
2019-12-03 12:00:00 14.1 17 Nordeste 37 Nordeste 0 -- -- 75
2019-12-03 11:00:00 13.6 15 Nordeste 31 Norte 0 -- -- 75
2019-12-03 10:00:00 12.1 13 Nordeste 29 Nordeste 0 -- -- 77
2019-12-03 09:00:00 11.8 10 Nordeste 30 Nordeste 0 -- -- 78
2019-12-03 08:00:00 11.4 12 Nordeste 28 Nordeste 0 -- -- 79
2019-12-03 07:00:00 11.5 10 Nordeste 30 Este 0 -- -- 79
2019-12-03 06:00:00 11.6 11 Nordeste 27 Nordeste 0 -- -- 80
2019-12-03 05:00:00 11.7 9 Nordeste 30 Nordeste 0 -- -- 81
2019-12-03 04:00:00 12.1 12 Nordeste 24 Este 0 -- -- 81
2019-12-03 03:00:00 12.1 7 Nordeste 22 Nordeste 0 -- -- 84
2019-12-03 02:00:00 12.2 9 Nordeste 23 Nordeste 0 -- -- 83
2019-12-03 01:00:00 12.4 9 Nordeste 20 Norte 0 -- -- 81
2019-12-03 00:00:00 12.6 8 Nordeste 21 Norte 0 -- -- 81
2019-12-02 23:00:00 12.1 7 Nordeste 16 Este 0 -- -- 84
2019-12-02 22:00:00 11.6 6 Nordeste 16 Nordeste 0 -- -- 88
2019-12-02 21:00:00 11.3 6 Nordeste 17 Nordeste 0 -- -- 88
2019-12-02 20:00:00 11.7 6 Nordeste 17 Nordeste 0 -- -- 85
2019-12-02 19:00:00 12.2 6 Nordeste 22 Nordeste 0 -- -- 84
2019-12-02 18:00:00 12.7 8 Nordeste 22 Nordeste 0 -- -- 83
2019-12-02 17:00:00 13.5 10 Nordeste 22 Nordeste 0 -- -- 82
2019-12-02 16:00:00 14.3 11 Nordeste 26 Nordeste 0 -- -- 79
2019-12-02 15:00:00 15.4 12 Nordeste 30 Norte 0 -- -- 78
2019-12-02 14:00:00 15.7 14 Nordeste 33 Nordeste 0 -- -- 84
2019-12-02 13:00:00 14.6 15 Nordeste 34 Nordeste 0 -- -- 93
2019-12-02 12:00:00 14.3 11 Nordeste 24 Nordeste 2.2 -- -- 99
2019-12-02 11:00:00 13 6 Nordeste 18 Nordeste 4 -- -- 99
2019-12-02 10:00:00 13 9 Nordeste 21 Nordeste 0.2 -- -- 99
2019-12-02 09:00:00 12.8 8 Nordeste 18 Nordeste 0 -- -- 100
2019-12-02 08:00:00 11.7 2 Norte 17 Nordeste 0 -- -- 100
2019-12-02 07:00:00 12.3 6 Nordeste 16 Nordeste 0 -- -- 100
2019-12-02 06:00:00 11 3 Norte 7 Norte 0 -- -- 100
2019-12-02 05:00:00 12.3 2 Este 5 Este 0.2 -- -- 99
2019-12-02 04:00:00 12.5 0 Calma 5 Este 0 -- -- 99
2019-12-02 03:00:00 12.7 0 Calma 10 Este 0.2 -- -- 99
2019-12-02 02:00:00 13.1 4 Nordeste 11 Nordeste 0 -- -- 99
2019-12-02 01:00:00 13.1 4 Noroeste 12 Este 0.8 -- -- 99
2019-12-02 00:00:00 12.7 0 Calma 6 Este 0 -- -- 99
2019-12-01 23:00:00 12 0 Calma 5 Nordeste 0 -- -- 99
2019-12-01 22:00:00 11.9 0 Calma 6 Este 0 -- -- 98
2019-12-01 21:00:00 12 2 Nordeste 7 Este 0 -- -- 97
2019-12-01 20:00:00 11.3 3 Este 6 Este 0 -- -- 95
2019-12-01 19:00:00 12 4 Este 5 Nordeste 0 -- -- 93
2019-12-01 18:00:00 13.7 0 Calma 9 Sudoeste 0 -- -- 89
2019-12-01 17:00:00 16.2 5 Sudoeste 15 Sudoeste 0 -- -- 86
2019-12-01 16:00:00 17.2 9 Sudoeste 22 Sudoeste 0 -- -- 84
2019-12-01 15:00:00 18.1 12 Sudoeste 23 Sudoeste 0 -- -- 81
2019-12-01 14:00:00 18.6 11 Sudoeste 25 Sudoeste 0 -- -- 78
2019-12-01 13:00:00 18.3 15 Sudoeste 25 Sudoeste 0 -- -- 79
2019-12-01 12:00:00 17.6 13 Sudoeste 23 Oeste 0 -- -- 84
2019-12-01 11:00:00 17.1 12 Sudoeste 21 Sudoeste 0 -- -- 87
2019-12-01 10:00:00 16.2 9 Sudoeste 20 Sudoeste 0 -- -- 93
2019-12-01 09:00:00 15.1 3 Sur 9 Sur 0 -- -- 97
2019-12-01 08:00:00 14.4 3 Sur 9 Sur 0 -- -- 97
2019-12-01 07:00:00 14.1 6 Sur 11 Sur 0 -- -- 98
2019-12-01 06:00:00 14 3 Sur 8 Sudoeste 0 -- -- 98
2019-12-01 05:00:00 13.9 3 Sudoeste 13 Sudoeste 0 -- -- 98
2019-12-01 04:00:00 14.4 4 Sur 11 Sudoeste 0 -- -- 99
2019-12-01 03:00:00 14.4 4 Sur 10 Sudeste 0 -- -- 99
2019-12-01 02:00:00 13.6 4 Sur 8 Sur 0 -- -- 99
2019-12-01 01:00:00 13 4 Sudeste 10 Sur 0 -- -- 99
2019-12-01 00:00:00 13.1 4 Sudeste 9 Sur 0 -- -- 97
2019-11-30 23:00:00 14.2 5 Sur 8 Sur 0 -- -- 97
2019-11-30 22:00:00 14.8 5 Sudoeste 12 Sudoeste 0 -- -- 95
2019-11-30 21:00:00 15.4 6 Sudoeste 15 Sudoeste 0 -- -- 94
2019-11-30 20:00:00 15.4 6 Sudoeste 19 Sudoeste 0 -- -- 92
2019-11-30 19:00:00 15.7 7 Sudoeste 18 Sudoeste 0 -- -- 91
2019-11-30 18:00:00 15.8 9 Sudoeste 18 Sur 0 -- -- 91
2019-11-30 17:00:00 16.7 9 Sudoeste 22 Sur 0 -- -- 87
2019-11-30 16:00:00 17.6 11 Sudoeste 22 Sudoeste 0 -- -- 84
2019-11-30 15:00:00 17.9 12 Sudoeste 23 Oeste 0 -- -- 81
2019-11-30 14:00:00 18.8 11 Sudoeste 21 Sudoeste 0 -- -- 77
2019-11-30 13:00:00 18.5 13 Sudoeste 22 Sudoeste 0 -- -- 81
2019-11-30 12:00:00 17.2 10 Sudoeste 16 Sudoeste 0 -- -- 97
2019-11-30 11:00:00 16 4 Oeste 8 Oeste 0 -- -- 100
2019-11-30 10:00:00 13.7 0 Calma 3 Este 0 -- -- 100
2019-11-30 09:00:00 10.8 0 Calma 4 Este 0 -- -- 100
2019-11-30 08:00:00 9.8 3 Este 4 Este 0 -- -- 100
2019-11-30 07:00:00 10.4 2 Este 6 Este 0 -- -- 100
2019-11-30 06:00:00 8.2 4 Este 5 Este 0 -- -- 100
2019-11-30 05:00:00 7.9 0 Calma 4 Nordeste 0 -- -- 99
2019-11-30 04:00:00 8 3 Este 5 Este 0 -- -- 99
2019-11-30 03:00:00 8.8 3 Este 4 Este 0 -- -- 99
2019-11-30 02:00:00 8.9 3 Este 5 Este 0 -- -- 99
2019-11-30 01:00:00 7.9 3 Este 6 Este 0 -- -- 99
2019-11-30 00:00:00 7.7 3 Este 5 Este 0 -- -- 98
2019-11-29 23:00:00 9 2 Nordeste 6 Este 0 -- -- 97
2019-11-29 22:00:00 9.2 3 Nordeste 6 Este 0 -- -- 97
2019-11-29 21:00:00 9.5 4 Este 5 Sudeste 0 -- -- 96
2019-11-29 20:00:00 10.5 4 Este 5 Nordeste 0 -- -- 95
2019-11-29 19:00:00 11.4 3 Sudeste 5 Este 0 -- -- 91
2019-11-29 18:00:00 13.7 3 Este 5 Nordeste 0 -- -- 89
2019-11-29 17:00:00 17.2 3 Sudoeste 12 Sudoeste 0 -- -- 85
2019-11-29 16:00:00 17.3 5 Sudoeste 9 Sudoeste 0 -- -- 85
2019-11-29 15:00:00 17.9 5 Sudoeste 21 Oeste 0 -- -- 81
2019-11-29 14:00:00 19.1 11 Sudoeste 21 Sudoeste 0 -- -- 76
2019-11-29 13:00:00 19.4 12 Sudoeste 23 Oeste 0 -- -- 75
2019-11-29 12:00:00 18.1 8 Oeste 15 Sudoeste 0 -- -- 83
2019-11-29 11:00:00 16.5 6 Sudoeste 13 Sudoeste 0 -- -- 89
2019-11-29 10:00:00 15.2 3 Sudeste 14 Sudoeste 0 -- -- 92
2019-11-29 09:00:00 14.4 4 Sudoeste 14 Sudoeste 0 -- -- 95
2019-11-29 08:00:00 13 6 Sudoeste 10 Sudoeste 0 -- -- 96
2019-11-29 07:00:00 12.4 4 Sudoeste 9 Sudoeste 0 -- -- 94
2019-11-29 06:00:00 12.7 6 Este 14 Sudoeste 0 -- -- 88
2019-11-29 05:00:00 13.9 9 Sudoeste 21 Sudoeste 0 -- -- 88
2019-11-29 04:00:00 14 7 Sudoeste 19 Oeste 0 -- -- 85
2019-11-29 03:00:00 14.4 12 Oeste 31 Sudoeste 0 -- -- 83
2019-11-29 02:00:00 14.3 15 Oeste 34 Sudoeste 0 -- -- 85
2019-11-29 01:00:00 14.1 14 Sudoeste 27 Sudoeste 0 -- -- 87
2019-11-29 00:00:00 14.1 14 Sudoeste 23 Sudoeste 0 -- -- 95
2019-11-28 23:00:00 13.2 7 Sudoeste 18 Oeste 0 -- -- 96
2019-11-28 22:00:00 12.3 9 Sudoeste 17 Sur 0 -- -- 98
2019-11-28 21:00:00 10.4 3 Sudoeste 8 Sudoeste 0 -- -- 92
2019-11-28 20:00:00 12.7 3 Sur 11 Sudoeste 0 -- -- 89
2019-11-28 19:00:00 13.7 8 Sudoeste 14 Sur 0 -- -- 89
2019-11-28 18:00:00 14 5 Sur 10 Sur 0 -- -- 87
2019-11-28 17:00:00 15.2 5 Sudoeste 22 Oeste 0 -- -- 82
2019-11-28 16:00:00 17.8 11 Oeste 29 Oeste 0 -- -- 73
2019-11-28 15:00:00 18.4 13 Oeste 30 Oeste 0 -- -- 74
2019-11-28 14:00:00 19.1 16 Sudoeste 32 Oeste 0 -- -- 70
2019-11-28 13:00:00 19.1 19 Oeste 34 Oeste 0 -- -- 69
2019-11-28 12:00:00 18.9 18 Oeste 31 Oeste 0 -- -- 71
2019-11-28 11:00:00 18.4 11 Oeste 20 Oeste 0 -- -- 75
2019-11-28 10:00:00 16.1 8 Oeste 17 Oeste 0 -- -- 95
2019-11-28 09:00:00 12.2 4 Oeste 9 Sur 0 -- -- 100
2019-11-28 08:00:00 6.5 5 Sur 6 Oeste 0 -- -- 98
2019-11-28 07:00:00 7.2 5 Este 6 Este 0 -- -- 99
2019-11-28 06:00:00 6.7 2 Sudoeste 6 Sudoeste 0 -- -- 98
2019-11-28 05:00:00 7.9 3 Este 6 Este 0 -- -- 98
2019-11-28 04:00:00 8.7 4 Este 5 Sudoeste 0 -- -- 97
2019-11-28 03:00:00 9.3 3 Sudoeste 7 Oeste 0 -- -- 97
2019-11-28 02:00:00 8.7 3 Sudoeste 6 Sudoeste 0 -- -- 95
2019-11-28 01:00:00 10.3 3 Este 12 Sudoeste 0 -- -- 93
2019-11-28 00:00:00 10.8 6 Sudoeste 12 Sudoeste 0 -- -- 97
2019-11-27 23:00:00 9.9 5 Sudoeste 7 Sudoeste 0 -- -- 97
2019-11-27 22:00:00 9.6 0 Calma 5 Noroeste 0 -- -- 95
2019-11-27 21:00:00 10.5 4 Sudoeste 9 Oeste 0 -- -- 95
2019-11-27 20:00:00 11.3 3 Sur 4 Sur 0 -- -- 91
2019-11-27 19:00:00 14 4 Oeste 15 Sudoeste 0 -- -- 88
2019-11-27 18:00:00 15.6 7 Sudoeste 17 Sudoeste 0 -- -- 84
2019-11-27 17:00:00 17.6 12 Oeste 33 Oeste 0 -- -- 75
2019-11-27 16:00:00 18.9 16 Oeste 33 Oeste 0 -- -- 71
2019-11-27 15:00:00 18.9 15 Oeste 33 Sudoeste 0 -- -- 73
2019-11-27 14:00:00 19.5 18 Oeste 46 Oeste 0 -- -- 69
2019-11-27 06:00:00 -- -- -- -- -- -- -- -- --
2019-11-27 05:00:00 -- -- -- -- -- -- -- -- --
2019-11-27 04:00:00 15.7 12 Sudoeste 25 Sudoeste 0 -- -- 95
2019-11-27 03:00:00 15.7 11 Sudoeste 25 Sudoeste 0 -- -- 95
2019-11-27 02:00:00 15.8 16 Sudoeste 35 Oeste 0 -- -- 95
2019-11-27 01:00:00 15.7 19 Sudoeste 35 Sudoeste 0 -- -- 96
2019-11-27 00:00:00 15.4 13 Sudoeste 24 Sudoeste 0 -- -- 96
2019-11-26 23:00:00 15.6 12 Sudoeste 28 Sudoeste 0 -- -- 95
2019-11-26 22:00:00 15.5 12 Sudoeste 23 Sudoeste 0 -- -- 96
2019-11-26 21:00:00 15.4 9 Sudoeste 24 Sudoeste 0 -- -- 94
2019-11-26 20:00:00 15.1 10 Sudoeste 19 Sudoeste 0 -- -- 93
2019-11-26 19:00:00 15.5 9 Sudoeste 19 Sudoeste 0 -- -- 92
2019-11-26 18:00:00 15.2 8 Sudoeste 18 Sudoeste 0 -- -- 89
2019-11-26 17:00:00 17.3 9 Sudoeste 29 Sudoeste 0 -- -- 84
2019-11-26 16:00:00 18.5 15 Sudoeste 27 Oeste 0 -- -- 77
2019-11-26 15:00:00 18.8 15 Sudoeste 28 Oeste 0 -- -- 73
2019-11-26 14:00:00 19 14 Sudoeste 26 Oeste 0 -- -- 75
2019-11-26 13:00:00 18.8 13 Sudoeste 26 Sudoeste 0 -- -- 79
2019-11-26 12:00:00 18.3 12 Sudoeste 20 Sudoeste 0 -- -- 83
2019-11-26 11:00:00 17.3 7 Sur 14 Sur 0 -- -- 95
2019-11-26 10:00:00 16.3 6 Sur 12 Sur 0 -- -- 100
2019-11-26 09:00:00 9.8 2 Nordeste 5 Este 0 -- -- 100
2019-11-26 08:00:00 6.7 4 Este 5 Este 0 -- -- 99
2019-11-26 07:00:00 6.5 4 Este 8 Este 0 -- -- 98
2019-11-26 06:00:00 7 6 Este 8 Este 0 -- -- 99
2019-11-26 05:00:00 6.5 2 Este 5 Este 0 -- -- 98
2019-11-26 04:00:00 7 0 Calma 5 Este 0 -- -- 98
2019-11-26 03:00:00 7.8 0 Calma 8 Oeste 0 -- -- 97
2019-11-26 02:00:00 8.2 6 Este 9 Este 0 -- -- 98
2019-11-26 01:00:00 8.3 5 Este 9 Este 0 -- -- 98
2019-11-26 00:00:00 8.2 3 Este 10 Oeste 0 -- -- 96
2019-11-25 23:00:00 9.7 2 Este 12 Este 0 -- -- 97
2019-11-25 22:00:00 9 5 Este 6 Este 0 -- -- 97
2019-11-25 21:00:00 8.7 3 Este 5 Este 0 -- -- 94
2019-11-25 20:00:00 9.6 2 Este 4 Este 0 -- -- 92
2019-11-25 19:00:00 11.2 0 Calma 5 Este 0 -- -- 89
2019-11-25 18:00:00 14.2 2 Noroeste 12 Sudoeste 0 -- -- 86
2019-11-25 17:00:00 16.6 6 Sudoeste 18 Oeste 0 -- -- 81
2019-11-25 16:00:00 17.7 11 Oeste 23 Oeste 0 -- -- 77
2019-11-25 15:00:00 18.7 14 Sudoeste 26 Sudoeste 0 -- -- 72
2019-11-25 14:00:00 19.2 14 Oeste 27 Oeste 0 -- -- 70
2019-11-25 13:00:00 18.7 14 Oeste 26 Oeste 0 -- -- 70
2019-11-25 12:00:00 17.5 13 Oeste 26 Oeste 0 -- -- 78
2019-11-25 11:00:00 17.4 9 Oeste 15 Oeste 0 -- -- 81
2019-11-25 10:00:00 14.5 5 Oeste 9 Oeste 0 -- -- 94
2019-11-25 09:00:00 9.4 3 Este 5 Este 0 -- -- 100
2019-11-25 08:00:00 4.9 0 Calma 7 Este 0 -- -- 99
2019-11-25 07:00:00 4.9 4 Este 6 Este 0 -- -- 99
2019-11-25 06:00:00 4.3 4 Este 8 Este 0 -- -- 98
2019-11-25 05:00:00 4.8 4 Este 8 Este 0 -- -- 98
2019-11-25 04:00:00 4.2 4 Este 6 Este 0 -- -- 98
2019-11-25 03:00:00 3.9 3 Este 4 Este 0 -- -- 97
2019-11-25 02:00:00 4.1 2 Sudoeste 4 Sur 0 -- -- 96
2019-11-25 01:00:00 4.9 3 Sudeste 5 Sudeste 0 -- -- 97
2019-11-25 00:00:00 5 2 Este -- -- 0 -- -- 95
2019-11-24 23:00:00 5.7 2 Sudeste 6 Sudeste 0 -- -- 95
2019-11-24 22:00:00 6.5 3 Este 7 Este 0 -- -- 94
2019-11-24 21:00:00 6.7 5 Este 7 Este 0 -- -- 93
2019-11-24 20:00:00 7.3 0 Calma 3 Noroeste 0 -- -- 87
2019-11-24 19:00:00 10.3 2 Noroeste 10 Noroeste 0 -- -- 80
2019-11-24 18:00:00 12.2 8 Oeste 20 Noroeste 0 -- -- 74
2019-11-24 17:00:00 14.2 10 Oeste 25 Noroeste 0 -- -- 66
2019-11-24 16:00:00 15.3 12 Noroeste 27 Noroeste 0 -- -- 62
2019-11-24 15:00:00 16.9 15 Noroeste 30 Noroeste 0 -- -- 57
2019-11-24 14:00:00 16.6 16 Noroeste 37 Oeste 0 -- -- 58
2019-11-24 13:00:00 16.2 21 Oeste 41 Noroeste 0 -- -- 59
2019-11-24 12:00:00 16.1 18 Oeste 40 Oeste 0 -- -- 61
2019-11-24 11:00:00 15.8 22 Noroeste 42 Noroeste 0 -- -- 61
2019-11-24 10:00:00 14.9 19 Oeste 39 Oeste 0 -- -- 61
2019-11-24 09:00:00 13.2 14 Oeste 23 Oeste 0 -- -- 70
2019-11-24 08:00:00 11.8 13 Oeste 27 Noroeste 0 -- -- 71
2019-11-24 07:00:00 12.4 16 Oeste 33 Oeste 0 -- -- 69
2019-11-24 06:00:00 11.7 10 Oeste 24 Oeste 0 -- -- 72
2019-11-24 05:00:00 12 4 Noroeste 25 Oeste 0 -- -- 71
2019-11-24 04:00:00 12.5 13 Oeste 28 Oeste 0 -- -- 67
2019-11-24 03:00:00 13.1 13 Oeste 32 Noroeste 0 -- -- 67
2019-11-24 02:00:00 13 12 Oeste 33 Noroeste 0 -- -- 68
2019-11-24 01:00:00 12.7 7 Noroeste 23 Noroeste 0 -- -- 68
2019-11-24 00:00:00 12.8 7 Oeste 29 Noroeste 0 -- -- 65
2019-11-23 23:00:00 13.8 11 Noroeste 36 Noroeste 0 -- -- 61
2019-11-23 22:00:00 13.8 13 Noroeste 39 Oeste 0 -- -- 59
2019-11-23 21:00:00 14.2 19 Oeste 46 Oeste 0 -- -- 57
2019-11-23 20:00:00 13.8 15 Oeste 51 Noroeste 0 -- -- 62
2019-11-23 19:00:00 14.1 24 Oeste 43 Oeste 0 -- -- 60
2019-11-23 18:00:00 13.5 13 Oeste 30 Oeste 0 -- -- 74
2019-11-23 17:00:00 13.4 19 Noroeste 46 Oeste 0 -- -- 67
2019-11-23 16:00:00 14.4 14 Oeste 27 Oeste 0 -- -- 79
2019-11-23 15:00:00 12.6 8 Oeste 22 Sudoeste 0.6 -- -- 91
2019-11-23 14:00:00 12.2 8 Oeste 42 Noroeste 0.6 -- -- 89
2019-11-23 13:00:00 14.3 27 Oeste 51 Oeste 0 -- -- 75
2019-11-23 12:00:00 15.2 20 Oeste 54 Sudoeste 0 -- -- 70
2019-11-23 11:00:00 16.1 30 Oeste 53 Oeste 0 -- -- 65
2019-11-23 10:00:00 16.4 26 Oeste 45 Oeste 0.6 -- -- 66
2019-11-23 09:00:00 15.5 9 Oeste 21 Sudoeste 0 -- -- 76
2019-11-23 08:00:00 15.4 11 Sudoeste 29 Sudoeste 0 -- -- 90
2019-11-23 07:00:00 15.1 12 Sudoeste 30 Sudoeste 0 -- -- 90
2019-11-23 06:00:00 15.4 12 Sudoeste 28 Sudoeste 0 -- -- 96
2019-11-23 05:00:00 15.9 17 Sudoeste 46 Sudoeste 0 -- -- 99
2019-11-23 04:00:00 16.3 22 Sudoeste 45 Sudoeste 0 -- -- 100
2019-11-23 03:00:00 16.5 23 Sudoeste 51 Sudoeste 1.4 -- -- 100
2019-11-23 02:00:00 16.1 23 Sudoeste 44 Sur 0.2 -- -- 100
2019-11-23 01:00:00 15.1 14 Sur 46 Sudoeste 1.8 -- -- 100
2019-11-23 00:00:00 15.1 22 Sur 45 Sur 2.6 -- -- 100
2019-11-22 23:00:00 15 20 Sur 43 Sudeste 2.6 -- -- 100
2019-11-22 22:00:00 14.6 15 Sur 37 Sur 3.6 -- -- 100
2019-11-22 21:00:00 15.1 17 Sur 37 Sur 0.4 -- -- 100
2019-11-22 20:00:00 15.6 12 Sur 32 Sur 0 -- -- 100
2019-11-22 19:00:00 15.4 16 Sur 31 Sur 0 -- -- 99
2019-11-22 18:00:00 15.6 11 Sur 27 Sur 0 -- -- 100
2019-11-22 17:00:00 15.8 10 Sur 29 Sur 0 -- -- 99
2019-11-22 16:00:00 15.9 14 Sudoeste 35 Sudoeste 0 -- -- 99
2019-11-22 15:00:00 16.3 17 Sudoeste 33 Sudoeste 0 -- -- 99
2019-11-22 14:00:00 15.6 15 Sudoeste 36 Sudoeste 0.2 -- -- 100
2019-11-22 13:00:00 15.9 20 Sudoeste 38 Sudoeste 0.2 -- -- 100
2019-11-22 12:00:00 16.3 18 Sudoeste 34 Sudoeste 0.4 -- -- 100
2019-11-22 11:00:00 15.4 10 Sudoeste 29 Sur 0 -- -- 100
2019-11-22 10:00:00 14.3 6 Sudoeste 22 Sur 0.6 -- -- 100
2019-11-22 09:00:00 13.3 8 Sudoeste 25 Oeste 5.6 -- -- 100
2019-11-22 08:00:00 12.4 4 Sudeste 9 Sudeste 3.8 -- -- 100
2019-11-22 07:00:00 12.1 6 Sudeste 13 Sudeste 0 -- -- 100
2019-11-22 06:00:00 12 4 Sudeste 9 Sudeste 4.4 -- -- 100
2019-11-22 05:00:00 12.3 3 Sur 6 Sudeste 2.2 -- -- 100
2019-11-22 04:00:00 12.1 5 Este 8 Este 2 -- -- 99
2019-11-22 03:00:00 10.9 0 Calma 4 Este 4.6 -- -- 99
2019-11-22 02:00:00 9.9 4 Este 4 Este 0 -- -- 98
2019-11-22 01:00:00 9.4 3 Este 5 Este 0 -- -- 98
2019-11-22 00:00:00 9 4 Este 4 Sudeste 0 -- -- 97
2019-11-21 23:00:00 9.5 2 Sudeste 5 Sudeste 0 -- -- 96
2019-11-21 22:00:00 9.6 3 Sudeste 7 Sur 0 -- -- 96
2019-11-21 21:00:00 9.3 3 Sudeste 6 Este 0 -- -- 94
2019-11-21 20:00:00 9.3 4 Este 4 Este 0 -- -- 92
2019-11-21 19:00:00 10.5 3 Sur 4 Sudeste 0 -- -- 88
2019-11-21 18:00:00 12.4 3 Sudoeste 8 Sudoeste 0 -- -- 81
2019-11-21 17:00:00 14 5 Oeste 22 Sudoeste 0 -- -- 77
2019-11-21 16:00:00 14.8 10 Oeste 33 Oeste 0 -- -- 71
2019-11-21 15:00:00 15.3 17 Oeste 35 Sudoeste 0 -- -- 68
2019-11-21 14:00:00 15.8 17 Oeste 33 Oeste 0 -- -- 67
2019-11-21 13:00:00 16.5 17 Sudoeste 31 Sudoeste 0 -- -- 68
2019-11-21 12:00:00 16.1 14 Sudoeste 28 Sudoeste 0 -- -- 71
2019-11-21 11:00:00 15.3 11 Oeste 21 Oeste 0 -- -- 75
2019-11-21 10:00:00 14.3 4 Sudoeste 8 Sudoeste 0 -- -- 92
2019-11-21 09:00:00 10.5 2 Sudeste 5 Este 0 -- -- 100
2019-11-21 08:00:00 8 0 Calma -- -- 0 -- -- 98
2019-11-21 07:00:00 8.6 4 Este 5 Este 0 -- -- 99
2019-11-21 06:00:00 9.6 2 Este 5 Este 0 -- -- 98
2019-11-21 05:00:00 10.2 3 Este 11 Sudoeste 0.8 -- -- 98
2019-11-21 04:00:00 10.5 9 Sudoeste 20 Sur 0.8 -- -- 98
2019-11-21 03:00:00 9.4 4 Este 14 Sur 0.2 -- -- 98
2019-11-21 02:00:00 8.9 5 Este 9 Este 0 -- -- 98
2019-11-21 01:00:00 8.3 4 Noroeste 10 Oeste 0 -- -- 98
2019-11-21 00:00:00 7.1 4 Este 6 Este 0 -- -- 97
2019-11-20 23:00:00 7.4 4 Este 5 Este 0 -- -- 96
2019-11-20 22:00:00 7.9 3 Este 5 Este 0 -- -- 95
2019-11-20 21:00:00 8.5 2 Este 4 Este 0 -- -- 93
2019-11-20 20:00:00 10.1 4 Este 6 Este 0 -- -- 92
2019-11-20 19:00:00 11.3 4 Sur 14 Sur 0.2 -- -- 92
2019-11-20 18:00:00 11.5 4 Sudeste 16 Sudeste 0.2 -- -- 90
2019-11-20 17:00:00 12.9 4 Sudeste 9 Sudeste 0 -- -- 88
2019-11-20 16:00:00 13.1 4 Sudeste 10 Sudeste 0 -- -- 88
2019-11-20 15:00:00 13.1 4 Sudeste 14 Sudoeste 0 -- -- 86
2019-11-20 14:00:00 13.4 5 Sudeste 10 Sudeste 0 -- -- 85
2019-11-20 13:00:00 12.2 3 Este 6 Sudeste 0 -- -- 95
2019-11-20 12:00:00 11.3 0 Calma 3 Este 0 -- -- 97
2019-11-20 11:00:00 9.6 0 Calma 4 Nordeste 0 -- -- 98
2019-11-20 10:00:00 7.2 3 Nordeste 10 Este 0 -- -- 99
2019-11-20 09:00:00 5 4 Este 8 Este 0 -- -- 99
2019-11-20 08:00:00 3.3 3 Este 6 Nordeste 0 -- -- 99
2019-11-20 07:00:00 2.6 3 Nordeste 6 Este 0.2 -- -- 98
2019-11-20 06:00:00 2.4 2 Nordeste 6 Nordeste 0 -- -- 97
2019-11-20 05:00:00 3.1 4 Este 6 Este 0 -- -- 98
2019-11-20 04:00:00 2.7 3 Nordeste 5 Este 0 -- -- 97
2019-11-20 03:00:00 3.8 5 Este 8 Este 0 -- -- 98
2019-11-20 02:00:00 2.1 0 Calma 5 Este 0 -- -- 97
2019-11-20 01:00:00 2.2 4 Este 6 Este 0 -- -- 97
2019-11-20 00:00:00 2.4 2 Nordeste 5 Nordeste 0 -- -- 96
2019-11-19 23:00:00 3 3 Este 4 Nordeste 0 -- -- 95
2019-11-19 22:00:00 4 3 Este 6 Este 0 -- -- 95
2019-11-19 21:00:00 4.8 4 Este 7 Este 0 -- -- 94
2019-11-19 20:00:00 5.4 4 Este 5 Este 0 -- -- 93
2019-11-19 19:00:00 6.5 4 Este 4 Este 0 -- -- 89
2019-11-19 18:00:00 9.1 2 Este 4 Sudoeste 0 -- -- 81
2019-11-19 17:00:00 13.5 3 Oeste 15 Oeste 0 -- -- 66
2019-11-19 16:00:00 15.2 6 Oeste 18 Sudoeste 0 -- -- 63
2019-11-19 15:00:00 15.3 4 Oeste 11 Oeste 0 -- -- 65
2019-11-19 14:00:00 12.7 2 Sudeste 6 Oeste 0 -- -- 79
2019-11-19 13:00:00 12.2 5 Oeste 22 Oeste 0.2 -- -- 84
2019-11-19 12:00:00 13.6 8 Sudoeste 15 Sudoeste 0 -- -- 67
2019-11-19 11:00:00 14.2 8 Oeste 16 Oeste 0 -- -- 66
2019-11-19 10:00:00 12.6 0 Calma 5 Este 0 -- -- 84
2019-11-19 09:00:00 7.5 3 Este 7 Este 0 -- -- 99
2019-11-19 08:00:00 4 5 Este 7 Este 0 -- -- 98
2019-11-19 07:00:00 3.8 4 Este 6 Este 0 -- -- 97
2019-11-19 06:00:00 4.2 4 Este 8 Este 0 -- -- 97
2019-11-19 05:00:00 4.5 3 Este 4 Este 0 -- -- 96
2019-11-19 04:00:00 5 3 Sudeste 6 Sudeste 0 -- -- 96
2019-11-19 03:00:00 7 2 Sur 5 Oeste 0 -- -- 95
2019-11-19 02:00:00 7.7 2 Norte 5 Oeste 0 -- -- 96
2019-11-19 01:00:00 7.3 2 Sudoeste 5 Sudoeste 0 -- -- 96
2019-11-19 00:00:00 5.7 0 Calma 3 Este 0 -- -- 95
2019-11-18 23:00:00 4.7 2 Sudeste 4 Este 0 -- -- 91
2019-11-18 22:00:00 6.5 2 Sudoeste 8 Sudoeste 0 -- -- 87
2019-11-18 21:00:00 8.5 3 Oeste 14 Norte 0 -- -- 81
2019-11-18 20:00:00 10.4 7 Norte 21 Norte 0 -- -- 78
2019-11-18 19:00:00 11 8 Norte 26 Norte 0 -- -- 79
2019-11-18 18:00:00 11.2 5 Norte 28 Norte 0 -- -- 76
2019-11-18 17:00:00 12.4 13 Norte 43 Norte 0 -- -- 74
2019-11-18 16:00:00 13.7 14 Norte 36 Norte 0 -- -- 76
2019-11-18 15:00:00 14 16 Norte 40 Nordeste 0 -- -- 77
2019-11-18 14:00:00 13.7 12 Norte 28 Nordeste 0 -- -- 80
2019-11-18 13:00:00 14 10 Norte 21 Noroeste 0 -- -- 78
2019-11-18 12:00:00 13.6 6 Noroeste 15 Noroeste 0 -- -- 84
2019-11-18 11:00:00 12.8 5 Norte 12 Norte 0 -- -- 95
2019-11-18 10:00:00 11.3 5 Norte 10 Nordeste 0 -- -- 98
2019-11-18 09:00:00 10.6 0 Calma 4 Nordeste 0 -- -- 98
2019-11-18 08:00:00 10.4 2 Oeste 8 Nordeste 0 -- -- 97
2019-11-18 07:00:00 10.9 2 Norte 4 Norte 0 -- -- 97
2019-11-18 06:00:00 11.3 4 Oeste 9 Noroeste 0 -- -- 97
2019-11-18 05:00:00 11.3 0 Calma 4 Sur 0.2 -- -- 96
2019-11-18 04:00:00 11.6 2 Sudeste 3 Sudeste 0.2 -- -- 95
2019-11-18 03:00:00 12.1 0 Calma 20 Oeste 0.6 -- -- 93
2019-11-18 02:00:00 12.6 0 Calma 9 Sur 0.2 -- -- 91
2019-11-18 01:00:00 14 4 Sur 28 Sudoeste 0.4 -- -- 82
2019-11-18 00:00:00 15.1 14 Sudoeste 28 Sudoeste 0 -- -- 72
2019-11-17 23:00:00 14.3 10 Sudoeste 25 Sudoeste 0 -- -- 68
2019-11-17 22:00:00 13.9 13 Sudoeste 26 Sudoeste 0 -- -- 69
2019-11-17 21:00:00 13.1 8 Oeste 20 Oeste 0 -- -- 71
2019-11-17 20:00:00 11.7 8 Sudoeste 14 Sudoeste 0 -- -- 76
2019-11-17 19:00:00 10.8 4 Sudoeste 12 Oeste 0 -- -- 76
2019-11-17 18:00:00 12.3 5 Oeste 21 Oeste 0 -- -- 69
2019-11-17 17:00:00 13.9 11 Oeste 29 Oeste 0 -- -- 64
2019-11-17 16:00:00 15.2 14 Oeste 33 Oeste 0 -- -- 56
2019-11-17 15:00:00 14.9 19 Oeste 38 Oeste 0 -- -- 57
2019-11-17 14:00:00 14.7 20 Oeste 43 Oeste 0 -- -- 59
2019-11-17 13:00:00 15.4 21 Sudoeste 38 Oeste 0 -- -- 62
2019-11-17 12:00:00 15 16 Oeste 35 Oeste 0 -- -- 57
2019-11-17 11:00:00 15.6 18 Oeste 34 Oeste 0 -- -- 53
2019-11-17 10:00:00 14.3 6 Sudoeste 10 Sudoeste 0 -- -- 63
2019-11-17 09:00:00 9 0 Calma 5 Este 0 -- -- 90
2019-11-17 08:00:00 4.2 0 Calma 10 Oeste 0 -- -- 91
2019-11-17 07:00:00 5 4 Este 6 Este 0 -- -- 86
2019-11-17 06:00:00 8.2 2 Este 22 Oeste 0 -- -- 73
2019-11-17 05:00:00 10.7 10 Oeste 25 Oeste 0 -- -- 65
2019-11-17 04:00:00 10.5 11 Noroeste 27 Oeste 0 -- -- 68
2019-11-17 03:00:00 9.4 10 Oeste 18 Oeste 0 -- -- 79
2019-11-17 02:00:00 9.3 12 Oeste 35 Noroeste 0.2 -- -- 88
2019-11-17 01:00:00 8.3 10 Oeste 22 Oeste 0 -- -- 93
2019-11-17 00:00:00 4.5 4 Oeste 5 Oeste 0 -- -- 97
2019-11-16 23:00:00 3.3 0 Calma 5 Oeste 0 -- -- 95
2019-11-16 22:00:00 4.4 0 Calma 4 Sudoeste 0 -- -- 93
2019-11-16 21:00:00 6.3 2 Este 10 Sudoeste 0 -- -- 92
2019-11-16 20:00:00 7.2 2 Noroeste 9 Noroeste 0 -- -- 90
2019-11-16 19:00:00 8.3 0 Calma 8 Oeste 0 -- -- 87
2019-11-16 18:00:00 9.6 3 Noroeste 11 Norte 0 -- -- 82
2019-11-16 17:00:00 11.5 5 Norte 22 Nordeste 0 -- -- 74
2019-11-16 16:00:00 13 8 Norte 29 Noroeste 0 -- -- 68
2019-11-16 15:00:00 12.7 12 Norte 29 Norte 0 -- -- 71
2019-11-16 14:00:00 13.1 3 Norte 11 Noroeste 0 -- -- 73
2019-11-16 13:00:00 12.3 2 Norte 8 Norte 0 -- -- 79
2019-11-16 12:00:00 10.6 3 Nordeste 5 Oeste 0 -- -- 87
2019-11-16 11:00:00 8.9 3 Este 6 Este 0 -- -- 91
2019-11-16 10:00:00 7.9 0 Calma 8 Norte 0 -- -- 90
2019-11-16 09:00:00 7.5 5 Norte 10 Nordeste 0 -- -- 90
2019-11-16 08:00:00 6.5 0 Calma 6 Norte 0 -- -- 92
2019-11-16 07:00:00 6.6 4 Norte 10 Este 0 -- -- 91
2019-11-16 06:00:00 5.7 0 Calma 10 Nordeste 0 -- -- 91
2019-11-16 05:00:00 6.7 6 Nordeste 14 Nordeste 0 -- -- 93
2019-11-16 04:00:00 5.6 4 Nordeste 9 Nordeste 0 -- -- 96
2019-11-16 03:00:00 4.6 3 Nordeste 22 Noroeste 0 -- -- 96
2019-11-16 02:00:00 3.3 6 Este 8 Este 0 -- -- 98
2019-11-16 01:00:00 4.2 5 Este 7 Este 0 -- -- 96
2019-11-16 00:00:00 4.8 5 Este 8 Este 0 -- -- 97
2019-11-15 23:00:00 5 2 Nordeste 7 Este 0 -- -- 96
2019-11-15 22:00:00 4.8 5 Este 6 Este 0 -- -- 95
2019-11-15 21:00:00 5.4 2 Este 6 Este 0 -- -- 94
2019-11-15 20:00:00 5.7 4 Este 5 Este 0 -- -- 92
2019-11-15 19:00:00 6.6 0 Calma 5 Este 0 -- -- 89
2019-11-15 18:00:00 9.5 0 Calma 19 Sudoeste 0 -- -- 79
2019-11-15 17:00:00 11.8 8 Oeste 22 Oeste 0 -- -- 68
2019-11-15 16:00:00 14.2 14 Sudoeste 24 Oeste 0 -- -- 56
2019-11-15 15:00:00 14.3 11 Sudoeste 25 Oeste 0 -- -- 58
2019-11-15 14:00:00 13.4 10 Oeste 17 Oeste 0 -- -- 65
2019-11-15 13:00:00 14.7 9 Noroeste 22 Noroeste 0 -- -- 63
2019-11-15 12:00:00 13.7 11 Noroeste 26 Noroeste 0 -- -- 63
2019-11-15 11:00:00 11.5 3 Sudoeste 11 Sudoeste 0 -- -- 86
2019-11-15 10:00:00 10.5 11 Oeste 19 Oeste 0.2 -- -- 82
2019-11-15 09:00:00 12.1 12 Oeste 33 Oeste 0 -- -- 74
2019-11-15 08:00:00 12 15 Oeste 35 Sudoeste 0 -- -- 71
2019-11-15 07:00:00 11.4 12 Sudoeste 29 Oeste 0 -- -- 73
2019-11-15 06:00:00 10.8 13 Oeste 27 Sudoeste 0 -- -- 80
2019-11-15 05:00:00 8.2 13 Sudoeste 25 Oeste 0 -- -- 100
2019-11-15 04:00:00 7.1 0 Calma 7 Este 0 -- -- 99
2019-11-15 03:00:00 7.3 4 Este 9 Sudeste 0.8 -- -- 99
2019-11-15 02:00:00 6.3 4 Sudeste 8 Sudeste 0 -- -- 100
2019-11-15 01:00:00 5.7 4 Este 5 Nordeste 0 -- -- 100
2019-11-15 00:00:00 6.5 2 Este 5 Este 0 -- -- 99
2019-11-14 23:00:00 8 2 Este 8 Este 0 -- -- 99
2019-11-14 22:00:00 9.2 2 Nordeste 11 Nordeste 0.4 -- -- 99
2019-11-14 21:00:00 10.1 3 Este 5 Sudoeste 0 -- -- 98
2019-11-14 20:00:00 10.7 4 Sudoeste 9 Sudoeste 0 -- -- 98
2019-11-14 19:00:00 10.8 2 Oeste 14 Oeste 0 -- -- 98
2019-11-14 18:00:00 11.6 0 Calma 30 Noroeste 0.6 -- -- 98
2019-11-14 17:00:00 13.3 11 Oeste 24 Oeste 0 -- -- 96
2019-11-14 16:00:00 14.1 9 Oeste 34 Sudoeste 0 -- -- 96
2019-11-14 15:00:00 14.6 13 Oeste 31 Oeste 0 -- -- 96
2019-11-14 14:00:00 15.1 14 Oeste 42 Oeste 7 -- -- 97
2019-11-14 13:00:00 17.4 19 Sudoeste 53 Sudoeste 0 -- -- 83
2019-11-14 12:00:00 17.7 23 Sudoeste 49 Sudoeste 0 -- -- 83
2019-11-14 11:00:00 17.6 20 Sudoeste 43 Sudoeste 0 -- -- 86
2019-11-14 10:00:00 17.3 17 Sudoeste 36 Sudoeste 0 -- -- 89
2019-11-14 09:00:00 16.5 12 Sur 29 Sur 0 -- -- 94
2019-11-14 08:00:00 14.2 13 Sudoeste 24 Sur 0 -- -- 100
2019-11-14 07:00:00 11.1 5 Sur 11 Sur 0 -- -- 100
2019-11-14 06:00:00 8.1 5 Sur 9 Sur 0 -- -- 100
2019-11-14 05:00:00 5.6 3 Este 4 Este 0 -- -- 100
2019-11-14 04:00:00 5 3 Este 5 Este 0 -- -- 99
2019-11-14 03:00:00 4.7 0 Calma 5 Este 0 -- -- 98
2019-11-14 02:00:00 5.9 6 Este 9 Este 0 -- -- 99
2019-11-14 01:00:00 5.3 4 Este 6 Sudeste 0 -- -- 98
2019-11-14 00:00:00 4.8 2 Este 6 Este 0 -- -- 97
2019-11-13 23:00:00 5.6 0 Calma 5 Sudoeste 0 -- -- 96
2019-11-13 22:00:00 6.5 3 Este 5 Este 0 -- -- 95
2019-11-13 21:00:00 7.8 4 Sudeste 6 Sudeste 0 -- -- 95
2019-11-13 20:00:00 9.3 2 Norte 12 Norte 0 -- -- 92
2019-11-13 19:00:00 11.2 0 Calma 4 Norte 0 -- -- 90
2019-11-13 18:00:00 12.3 3 Oeste 12 Norte 0 -- -- 90
2019-11-13 17:00:00 13 5 Norte 22 Norte 0 -- -- 88
2019-11-13 16:00:00 13.2 8 Norte 24 Norte 0 -- -- 88
2019-11-13 15:00:00 13 8 Nordeste 21 Norte 0 -- -- 91
2019-11-13 14:00:00 13.7 7 Nordeste 18 Norte 0 -- -- 89
2019-11-13 13:00:00 13.5 4 Nordeste 12 Norte 0.2 -- -- 96
2019-11-13 12:00:00 12.9 3 Nordeste 5 Nordeste 4.6 -- -- 97
2019-11-13 11:00:00 12.3 3 Este 5 Este 1.8 -- -- 95
2019-11-13 10:00:00 11.9 0 Calma 6 Sudoeste 2 -- -- 93
2019-11-13 09:00:00 11.8 3 Este 6 Este 0 -- -- 90
2019-11-13 08:00:00 10.2 4 Este 6 Este 0 -- -- 91
2019-11-13 07:00:00 9.5 4 Este 7 Este 0 -- -- 92
2019-11-13 06:00:00 9 4 Este 6 Este 0 -- -- 92
2019-11-13 05:00:00 8.7 5 Este 8 Este 0 -- -- 93
2019-11-13 04:00:00 8.4 4 Sudeste 8 Este 0 -- -- 92
2019-11-13 03:00:00 7.5 3 Este 6 Este 0 -- -- 93
2019-11-13 02:00:00 7.4 5 Este 9 Este 0 -- -- 94
2019-11-13 01:00:00 7.2 2 Este 6 Este 0 -- -- 90
2019-11-13 00:00:00 8.7 3 Este 6 Este 0 -- -- 86
2019-11-12 23:00:00 11 0 Calma 22 Oeste 0 -- -- 77
2019-11-12 22:00:00 12.5 10 Oeste 20 Oeste 0 -- -- 72
2019-11-12 21:00:00 11.4 8 Oeste 17 Oeste 0 -- -- 77
2019-11-12 20:00:00 12.1 9 Sudoeste 17 Sudoeste 0 -- -- 75
2019-11-12 19:00:00 11.6 8 Oeste 15 Oeste 0 -- -- 76
2019-11-12 18:00:00 11.9 3 Sudoeste 20 Oeste 0 -- -- 74
2019-11-12 17:00:00 15.3 10 Oeste 24 Oeste 0 -- -- 61
2019-11-12 16:00:00 16.7 12 Oeste 29 Noroeste 0 -- -- 51
2019-11-12 15:00:00 16.9 16 Oeste 31 Oeste 0 -- -- 53
2019-11-12 14:00:00 17.4 15 Oeste 28 Oeste 0 -- -- 50
2019-11-12 13:00:00 17.4 13 Noroeste 24 Oeste 0 -- -- 56
2019-11-12 12:00:00 17.3 8 Noroeste 16 Noroeste 0 -- -- 57
2019-11-12 11:00:00 15.8 5 Nordeste 13 Nordeste 0 -- -- 64
2019-11-12 10:00:00 13.3 4 Norte 7 Nordeste 0 -- -- 86
2019-11-12 09:00:00 9.5 0 Calma 5 Este 0 -- -- 98
2019-11-12 08:00:00 6 6 Este 8 Este 0 -- -- 99
2019-11-12 07:00:00 4.7 3 Este 5 Este 0 -- -- 98
2019-11-12 06:00:00 5.5 8 Oeste 18 Oeste 0 -- -- 98
2019-11-12 05:00:00 4.8 4 Este 7 Este 0 -- -- 98
2019-11-12 04:00:00 4.8 4 Este 5 Este 0 -- -- 97
2019-11-12 03:00:00 5.1 0 Calma 5 Este 0 -- -- 96
2019-11-12 02:00:00 5.3 4 Este 5 Este 0 -- -- 96
2019-11-12 01:00:00 5.8 4 Este 6 Este 0 -- -- 95
2019-11-12 00:00:00 6.1 0 Calma 5 Este 0 -- -- 92
2019-11-11 23:00:00 7.6 3 Este 6 Norte 0 -- -- 90
2019-11-11 22:00:00 9.6 4 Norte 10 Norte 0 -- -- 86
2019-11-11 21:00:00 10.6 4 Noroeste 17 Oeste 0 -- -- 83
2019-11-11 20:00:00 11.5 7 Noroeste 14 Noroeste 0 -- -- 82
2019-11-11 19:00:00 12.1 6 Norte 21 Noroeste 0 -- -- 82
2019-11-11 18:00:00 12.8 8 Noroeste 31 Norte 0 -- -- 78
2019-11-11 17:00:00 13.2 13 Norte 35 Norte 0 -- -- 79
2019-11-11 16:00:00 13.6 15 Norte 34 Noroeste 0 -- -- 75
2019-11-11 15:00:00 13.6 14 Norte 30 Noroeste 0 -- -- 74
2019-11-11 14:00:00 13.7 12 Norte 34 Norte 0 -- -- 75
2019-11-11 13:00:00 13.7 12 Noroeste 28 Norte 0 -- -- 71
2019-11-11 12:00:00 13.7 13 Noroeste 27 Norte 0 -- -- 71
2019-11-11 11:00:00 13.1 14 Noroeste 29 Noroeste 0 -- -- 72
2019-11-11 10:00:00 12.2 11 Norte 23 Norte 0 -- -- 77
2019-11-11 09:00:00 11.4 9 Norte 26 Noroeste 0 -- -- 79
2019-11-11 08:00:00 11 10 Noroeste 26 Noroeste 0 -- -- 79
2019-11-11 07:00:00 10.7 9 Noroeste 20 Oeste 0 -- -- 99
2019-11-11 06:00:00 10.2 10 Oeste 23 Noroeste 0 -- -- 100
2019-11-11 05:00:00 7.1 0 Calma 7 Oeste 0 -- -- 100
2019-11-11 04:00:00 5.8 0 Calma 9 Sudoeste 0 -- -- 100
2019-11-11 03:00:00 6.8 0 Calma 9 Noroeste 0 -- -- 99
2019-11-11 02:00:00 8.8 5 Noroeste 21 Norte 0 -- -- 99
2019-11-11 01:00:00 8.8 9 Norte 26 Norte 0.2 -- -- 100
2019-11-11 00:00:00 5.1 0 Calma 8 Oeste 0 -- -- 100